Time;durP1;ratioP1;P1;durP2;ratioP2;P2;SDS_P1;SDS_P2;PMS_P1;PMS_P2;Temp;Humidity;BMP_temperature;BMP_pressure;BME280_temperature;BME280_humidity;BME280_pressure;Samples;Min_cycle;Max_cycle;Signal;HPM_P1;HPM_P2
2023/09/17 00:00:29;;;;;;;7.63;6.93;;;;;;;22.07;96.71;97961.38;5090704;23;20597;-89
2023/09/17 00:02:35;;;;;;;7.43;6.83;;;;;;;22.06;96.29;97958.88;5115375;23;20580;-90
2023/09/17 00:04:38;;;;;;;8.30;7.40;;;;;;;22.03;96.32;97964.56;5090608;23;20681;-90
2023/09/17 00:06:42;;;;;;;8.00;7.20;;;;;;;21.98;95.64;97958.94;5066543;23;20591;-90
2023/09/17 00:08:46;;;;;;;7.30;6.60;;;;;;;21.99;95.72;97957.94;5066472;23;20984;-91
2023/09/17 00:10:49;;;;;;;7.90;7.20;;;;;;;21.96;95.92;97952.97;5066265;23;20585;-90
2023/09/17 00:12:53;;;;;;;7.10;6.40;;;;;;;21.97;96.03;97954.66;5066509;23;20571;-91
2023/09/17 00:14:56;;;;;;;8.27;7.47;;;;;;;21.97;95.94;97955.47;5089630;23;20651;-90
2023/09/17 00:16:59;;;;;;;9.00;7.60;;;;;;;21.96;96.17;97952.97;5090959;23;20707;-89
2023/09/17 00:19:04;;;;;;;8.33;7.53;;;;;;;21.95;96.17;97961.94;5066773;23;20632;-90
2023/09/17 00:21:07;;;;;;;7.87;6.90;;;;;;;21.93;96.06;97964.78;5066278;23;20903;-90
2023/09/17 00:23:10;;;;;;;7.80;7.10;;;;;;;21.93;96.11;97969.28;5066112;23;20578;-90
2023/09/17 00:25:14;;;;;;;7.67;6.97;;;;;;;21.94;96.91;97978.91;5066076;23;20669;-90
2023/09/17 00:27:17;;;;;;;7.83;7.03;;;;;;;21.91;96.56;97971.28;5090647;23;20587;-90
2023/09/17 00:29:23;;;;;;;8.07;7.20;;;;;;;21.85;96.58;97967.50;5088250;23;21027;-89
2023/09/17 00:31:27;;;;;;;10.63;9.63;;;;;;;21.85;96.48;97974.66;5065371;23;21326;-90
2023/09/17 00:33:30;;;;;;;8.40;7.70;;;;;;;21.82;96.26;97972.34;5065268;23;20620;-91
2023/09/17 00:35:35;;;;;;;9.37;8.27;;;;;;;21.81;96.48;97968.03;5064596;23;20696;-90
2023/09/17 00:37:40;;;;;;;9.20;8.30;;;;;;;21.79;96.20;97962.09;5066408;23;21155;-89
2023/09/17 00:39:44;;;;;;;8.20;7.40;;;;;;;21.77;95.85;97964.91;5091051;23;20572;-89
2023/09/17 00:41:47;;;;;;;9.47;7.40;;;;;;;21.74;96.62;97959.13;5064648;23;21127;-90
2023/09/17 00:43:50;;;;;;;10.07;8.00;;;;;;;21.73;96.16;97961.97;5066101;23;20704;-90
2023/09/17 00:45:54;;;;;;;8.80;7.57;;;;;;;21.66;95.97;97966.31;5064461;23;21195;-90
2023/09/17 00:48:00;;;;;;;8.37;7.57;;;;;;;21.62;96.72;97965.84;5066526;23;20582;-90
2023/09/17 00:50:04;;;;;;;8.20;7.40;;;;;;;21.61;95.83;97963.38;5066592;23;20575;-90
2023/09/17 00:52:16;;;;;;;7.57;6.87;;;;;;;21.56;96.91;97949.78;5090293;23;20591;-90
2023/09/17 00:54:20;;;;;;;8.50;7.60;;;;;;;21.54;95.99;97957.91;5066292;23;20577;-90
2023/09/17 00:56:24;;;;;;;10.53;7.47;;;;;;;21.52;96.03;97948.50;5090119;23;20641;-90
2023/09/17 00:58:28;;;;;;;9.73;8.00;;;;;;;21.50;96.73;97950.47;5066194;23;21157;-89
2023/09/17 01:00:33;;;;;;;10.33;7.17;;;;;;;21.45;96.92;97951.00;5089793;23;20581;-95
2023/09/17 01:02:37;;;;;;;9.07;7.67;;;;;;;21.44;96.96;97954.66;5066005;23;20662;-95
2023/09/17 01:04:43;;;;;;;8.27;7.47;;;;;;;21.43;97.59;97949.50;5066877;23;20607;-94
2023/09/17 01:06:48;;;;;;;8.17;7.00;;;;;;;21.40;97.26;97952.53;5065598;23;20579;-95
2023/09/17 01:08:53;;;;;;;9.17;8.10;;;;;;;21.37;97.16;97952.88;5067196;23;21186;-94
2023/09/17 01:10:56;;;;;;;8.53;7.73;;;;;;;21.34;97.65;97956.69;5067031;23;20565;-95
2023/09/17 01:13:00;;;;;;;9.73;7.80;;;;;;;21.27;97.13;97953.09;5066758;23;21198;-94
2023/09/17 01:15:08;;;;;;;8.07;7.27;;;;;;;21.21;96.79;97958.25;5066704;23;20578;-94
2023/09/17 01:17:12;;;;;;;9.20;8.07;;;;;;;21.19;96.63;97948.81;5065922;23;20628;-94
2023/09/17 01:19:22;;;;;;;9.57;8.07;;;;;;;21.18;97.28;97953.28;5089797;23;20598;-95
2023/09/17 01:21:31;;;;;;;11.17;8.40;;;;;;;21.12;96.98;97948.66;5066182;23;20583;-93
2023/09/17 01:23:41;;;;;;;8.97;8.07;;;;;;;21.15;96.78;97958.13;5066698;23;20593;-93
2023/09/17 01:25:54;;;;;;;8.73;7.83;;;;;;;21.12;97.54;97953.16;5091091;23;20971;-94
2023/09/17 01:28:00;;;;;;;9.27;8.37;;;;;;;21.08;97.85;97960.66;5066810;23;20996;-95
2023/09/17 01:30:10;;;;;;;9.00;8.10;;;;;;;21.03;98.07;97952.38;5065471;23;20588;-95
2023/09/17 01:32:14;;;;;;;9.60;8.60;;;;;;;21.03;97.48;97955.03;5065814;23;20594;-93
2023/09/17 01:34:19;;;;;;;9.07;8.17;;;;;;;21.01;98.77;97961.50;5066689;23;20588;-94
2023/09/17 01:36:28;;;;;;;9.10;8.20;;;;;;;21.01;97.58;97958.84;5065647;23;20713;-94
2023/09/17 01:38:35;;;;;;;8.23;7.43;;;;;;;20.97;98.01;97963.69;5066319;23;20592;-94
2023/09/17 01:40:40;;;;;;;9.33;8.00;;;;;;;20.96;97.47;97959.38;5065992;23;20583;-93
2023/09/17 01:42:46;;;;;;;8.97;8.07;;;;;;;20.93;97.76;97965.00;5089641;23;20587;-94
2023/09/17 01:44:51;;;;;;;9.57;8.30;;;;;;;20.88;98.85;97959.41;5064180;23;20652;-94
2023/09/17 01:46:57;;;;;;;8.13;7.33;;;;;;;20.86;97.86;97965.88;5064188;23;20581;-93
2023/09/17 01:49:01;;;;;;;9.37;8.40;;;;;;;20.85;98.13;97961.56;5066462;23;20608;-94
2023/09/17 01:51:07;;;;;;;9.20;8.13;;;;;;;20.84;98.67;97963.38;5066313;23;20546;-94
2023/09/17 01:53:12;;;;;;;8.27;7.37;;;;;;;20.83;99.09;97960.91;5065602;23;20583;-94
2023/09/17 01:55:17;;;;;;;8.57;7.77;;;;;;;20.80;97.67;97972.66;5089711;23;20641;-94
2023/09/17 01:57:20;;;;;;;10.40;8.17;;;;;;;20.80;97.93;97972.66;5065905;23;20621;-94
2023/09/17 01:59:24;;;;;;;12.87;7.70;;;;;;;20.77;97.98;97966.91;5066428;23;20584;-95
2023/09/17 02:01:30;;;;;;;8.63;7.70;;;;;;;20.76;97.73;97967.88;5090463;23;20587;-94
2023/09/17 02:03:34;;;;;;;8.90;8.10;;;;;;;20.76;99.02;97969.72;5065448;23;20683;-94
2023/09/17 02:05:38;;;;;;;8.60;7.70;;;;;;;20.74;99.04;97977.03;5066202;23;20670;-94
2023/09/17 02:07:42;;;;;;;8.93;7.97;;;;;;;20.76;98.25;97985.63;5066237;23;20587;-93
2023/09/17 02:09:49;;;;;;;8.77;7.97;;;;;;;20.75;99.05;97989.25;5066465;23;20607;-93
2023/09/17 02:11:52;;;;;;;8.50;7.70;;;;;;;20.75;99.66;97998.06;5065063;23;20639;-89
2023/09/17 02:13:56;;;;;;;8.90;8.00;;;;;;;20.70;98.86;97987.13;5063830;23;20852;-89
2023/09/17 02:16:00;;;;;;;8.60;7.70;;;;;;;20.73;99.40;97994.72;5064671;23;21128;-89
2023/09/17 02:18:06;;;;;;;9.20;8.30;;;;;;;20.69;99.20;97990.78;5065100;23;20616;-89
2023/09/17 02:20:11;;;;;;;9.27;8.30;;;;;;;20.66;100.00;97991.09;5065229;23;20560;-90
2023/09/17 02:22:15;;;;;;;9.20;8.30;;;;;;;20.66;98.89;97991.09;5089723;23;20601;-89
2023/09/17 02:24:19;;;;;;;9.57;8.57;;;;;;;20.65;100.00;97993.91;5089455;23;20618;-90
2023/09/17 02:26:23;;;;;;;11.53;8.90;;;;;;;20.64;99.93;97984.28;5065217;23;20653;-89
2023/09/17 02:28:27;;;;;;;9.50;8.50;;;;;;;20.62;100.00;97995.06;5065311;23;21441;-89
2023/09/17 02:30:31;;;;;;;9.30;8.40;;;;;;;20.63;100.00;97990.63;5065403;23;20569;-90
2023/09/17 02:32:37;;;;;;;10.37;8.47;;;;;;;20.63;100.00;97990.63;5062495;23;21193;-89
2023/09/17 02:34:42;;;;;;;9.33;8.43;;;;;;;20.64;100.00;97992.25;5064960;23;20608;-90
2023/09/17 02:36:46;;;;;;;9.07;8.23;;;;;;;20.64;100.00;97987.78;5089733;23;20579;-89
2023/09/17 02:38:51;;;;;;;8.90;8.00;;;;;;;20.65;100.00;97984.13;5065241;23;20610;-89
2023/09/17 02:40:55;;;;;;;8.97;8.07;;;;;;;20.65;99.81;97989.44;5064710;23;20580;-90
2023/09/17 02:42:58;;;;;;;8.80;7.90;;;;;;;20.62;100.00;97983.66;5089850;23;21018;-89
2023/09/17 02:45:05;;;;;;;9.10;8.20;;;;;;;20.63;100.00;97986.13;5088239;23;20895;-89
2023/09/17 02:47:09;;;;;;;8.17;7.37;;;;;;;20.62;100.00;97986.28;5064307;23;20667;-89
2023/09/17 02:49:12;;;;;;;8.97;8.17;;;;;;;20.63;100.00;97986.13;5063417;23;20659;-89
2023/09/17 02:51:17;;;;;;;8.40;7.50;;;;;;;20.62;100.00;97981.81;5064452;23;20579;-89
2023/09/17 02:53:21;;;;;;;9.03;8.23;;;;;;;20.61;100.00;97981.97;5088381;23;20582;-89
2023/09/17 02:55:24;;;;;;;9.23;8.30;;;;;;;20.60;100.00;97986.47;5088666;23;20626;-89
2023/09/17 02:57:28;;;;;;;8.50;7.60;;;;;;;20.55;100.00;97983.50;5087391;23;20616;-89
2023/09/17 02:59:34;;;;;;;10.20;7.83;;;;;;;20.54;100.00;97981.03;5090113;23;21109;-90
2023/09/17 03:01:40;;;;;;;8.10;7.30;;;;;;;20.52;100.00;97980.34;5064690;23;20576;-90
2023/09/17 03:03:44;;;;;;;9.20;8.30;;;;;;;20.52;100.00;97977.69;5089775;23;20589;-90
2023/09/17 03:05:48;;;;;;;8.67;7.87;;;;;;;20.52;100.00;97978.53;5064819;23;21237;-89
2023/09/17 03:07:53;;;;;;;10.10;8.03;;;;;;;20.54;100.00;97975.72;5063349;23;21192;-90
2023/09/17 03:09:59;;;;;;;11.53;7.90;;;;;;;20.53;100.00;97974.88;5064991;23;20572;-90
2023/09/17 03:12:04;;;;;;;7.90;7.20;;;;;;;20.53;100.00;97988.13;5064985;23;21205;-89
2023/09/17 03:14:08;;;;;;;9.40;8.50;;;;;;;20.54;100.00;97986.31;5089653;23;20919;-89
2023/09/17 03:16:16;;;;;;;8.57;7.77;;;;;;;20.53;100.00;97979.34;5064006;23;20588;-90
2023/09/17 03:18:21;;;;;;;8.73;7.90;;;;;;;20.53;100.00;97985.47;5087372;23;20633;-90
2023/09/17 03:20:27;;;;;;;8.80;8.00;;;;;;;20.51;100.00;97995.44;5065040;23;20587;-89
2023/09/17 03:22:30;;;;;;;8.80;7.90;;;;;;;20.49;100.00;97997.44;5064590;23;20616;-90
2023/09/17 03:24:35;;;;;;;8.50;7.60;;;;;;;20.47;100.00;97991.44;5088166;23;20686;-89
2023/09/17 03:26:41;;;;;;;9.63;8.20;;;;;;;20.47;100.00;98004.69;5064470;23;21119;-90
2023/09/17 03:28:44;;;;;;;9.13;8.23;;;;;;;20.42;99.60;97998.25;5064518;23;20600;-89
2023/09/17 03:30:48;;;;;;;9.80;7.87;;;;;;;20.34;100.00;97991.16;5087992;23;20985;-90
2023/09/17 03:32:52;;;;;;;9.17;8.37;;;;;;;20.33;99.88;98000.09;5064238;23;20576;-89
2023/09/17 03:35:10;;;;;;;8.87;8.07;;;;;;;20.32;99.82;98002.06;5089566;23;20582;-89
2023/09/17 03:37:14;;;;;;;11.50;9.00;;;;;;;20.31;99.42;97998.59;5064610;23;20576;-89
2023/09/17 03:39:18;;;;;;;11.57;9.50;;;;;;;20.30;100.00;97998.75;5064136;23;21003;-89
2023/09/17 03:41:22;;;;;;;10.70;8.53;;;;;;;20.30;100.00;98015.50;5064569;23;20594;-89
2023/09/17 03:43:27;;;;;;;11.10;9.33;;;;;;;20.28;100.00;98008.69;5086227;23;20622;-89
2023/09/17 03:45:30;;;;;;;9.60;8.47;;;;;;;20.22;99.47;98010.22;5064881;23;20600;-89
2023/09/17 03:47:34;;;;;;;11.10;10.00;;;;;;;20.19;100.00;98007.88;5065368;23;20580;-89
2023/09/17 03:49:37;;;;;;;9.43;8.63;;;;;;;20.18;100.00;98008.06;5065115;23;20587;-89
2023/09/17 03:51:41;;;;;;;9.97;9.00;;;;;;;20.16;99.00;98004.72;5064901;23;20625;-89
2023/09/17 03:53:45;;;;;;;10.70;9.60;;;;;;;20.13;100.00;98010.34;5065063;23;20587;-89
2023/09/17 03:55:49;;;;;;;10.50;9.40;;;;;;;20.11;99.88;98004.41;5064955;23;20647;-89
2023/09/17 03:57:56;;;;;;;10.30;9.03;;;;;;;20.10;100.00;98002.72;5065347;23;20600;-90
2023/09/17 04:00:06;;;;;;;10.40;9.30;;;;;;;20.08;100.00;98002.91;5088254;23;20983;-89
2023/09/17 04:02:17;;;;;;;9.27;8.40;;;;;;;20.06;100.00;98002.25;5088587;23;20579;-89
2023/09/17 04:04:20;;;;;;;9.63;8.70;;;;;;;20.06;100.00;98002.25;5114161;23;20663;-90
2023/09/17 04:06:24;;;;;;;10.27;9.20;;;;;;;20.04;100.00;97996.28;5090024;23;20921;-90
2023/09/17 04:08:27;;;;;;;11.00;9.93;;;;;;;20.02;100.00;98000.91;5063520;23;21151;-89
2023/09/17 04:10:30;;;;;;;10.17;9.00;;;;;;;20.00;99.82;98002.91;5065551;23;20626;-90
2023/09/17 04:12:34;;;;;;;10.00;8.43;;;;;;;20.00;100.00;98012.69;5063878;23;20607;-89
2023/09/17 04:14:40;;;;;;;9.47;8.57;;;;;;;19.99;100.00;98008.38;5064358;23;20841;-90
2023/09/17 04:16:43;;;;;;;10.47;9.40;;;;;;;19.96;100.00;98000.75;5088601;23;20601;-90
2023/09/17 04:18:46;;;;;;;10.10;8.97;;;;;;;19.89;99.34;97994.44;5089383;23;20605;-90
2023/09/17 04:20:50;;;;;;;9.87;8.87;;;;;;;19.86;100.00;98005.41;5065081;23;20615;-90
2023/09/17 04:22:53;;;;;;;9.03;8.23;;;;;;;19.82;100.00;98009.31;5088661;23;21012;-89
2023/09/17 04:24:57;;;;;;;9.93;8.87;;;;;;;19.82;100.00;98014.59;5088963;23;20581;-89
2023/09/17 04:27:00;;;;;;;10.93;8.87;;;;;;;19.82;100.00;98013.78;5065171;23;20627;-89
2023/09/17 04:29:04;;;;;;;9.50;8.43;;;;;;;19.80;99.56;98021.91;5064622;23;21142;-89
2023/09/17 04:31:09;;;;;;;9.63;8.73;;;;;;;19.74;100.00;98017.25;5063314;23;20580;-92
2023/09/17 04:33:14;;;;;;;9.70;8.73;;;;;;;19.71;100.00;98014.94;5063486;23;20635;-94
2023/09/17 04:35:17;;;;;;;9.50;8.50;;;;;;;19.72;100.00;98013.91;5064972;23;20583;-93
2023/09/17 04:37:22;;;;;;;9.80;8.80;;;;;;;19.70;100.00;98009.81;5064960;23;20978;-93
2023/09/17 04:39:26;;;;;;;9.53;8.20;;;;;;;19.65;99.37;98010.28;5091138;23;20621;-93
2023/09/17 04:41:29;;;;;;;11.87;9.70;;;;;;;19.55;98.80;98012.22;5066093;23;20587;-93
2023/09/17 04:43:33;;;;;;;10.17;9.07;;;;;;;19.50;98.64;98011.06;5065303;23;21124;-93
2023/09/17 04:45:38;;;;;;;10.47;9.37;;;;;;;19.46;98.92;98013.19;5066524;23;20581;-93
2023/09/17 04:48:18;;;;;;;9.67;8.70;;;;;;;19.44;99.39;98015.19;5067447;23;20593;-95
2023/09/17 04:50:22;;;;;;;9.87;8.87;;;;;;;19.42;99.20;98019.81;5066543;23;20657;-93
2023/09/17 04:52:25;;;;;;;10.17;8.93;;;;;;;19.42;99.54;98022.47;5066431;23;20592;-92
2023/09/17 04:54:28;;;;;;;12.67;8.50;;;;;;;19.40;100.00;98021.78;5066663;23;20583;-94
2023/09/17 04:56:31;;;;;;;12.80;9.47;;;;;;;19.42;100.00;98018.97;5065069;23;20619;-93
2023/09/17 04:58:35;;;;;;;10.13;9.13;;;;;;;19.42;100.00;98019.81;5066409;23;20988;-93
2023/09/17 05:00:41;;;;;;;10.10;9.10;;;;;;;19.41;100.00;98019.97;5066326;23;20663;-93
2023/09/17 05:02:44;;;;;;;10.87;9.77;;;;;;;19.39;100.00;98017.50;5066139;23;20569;-93
2023/09/17 05:04:50;;;;;;;14.03;12.73;;;;;;;19.38;100.00;98013.19;5065048;23;20623;-94
2023/09/17 05:06:54;;;;;;;12.13;11.00;;;;;;;19.39;100.00;98006.91;5065095;23;20694;-92
2023/09/17 05:08:58;;;;;;;11.80;10.60;;;;;;;19.39;100.00;98017.50;5065840;23;20953;-92
2023/09/17 05:11:03;;;;;;;9.97;8.90;;;;;;;19.42;100.00;98005.75;5066447;23;20589;-93
2023/09/17 05:13:06;;;;;;;9.30;8.40;;;;;;;19.43;100.00;98010.88;5066478;23;20588;-93
2023/09/17 05:15:10;;;;;;;10.27;9.30;;;;;;;19.44;100.00;98015.19;5090591;23;20637;-92
2023/09/17 05:17:15;;;;;;;9.23;8.40;;;;;;;19.43;100.00;98018.81;5065153;23;20591;-93
2023/09/17 05:19:18;;;;;;;8.77;7.80;;;;;;;19.46;100.00;98021.13;5090407;23;20609;-93
2023/09/17 05:21:23;;;;;;;8.40;7.60;;;;;;;19.49;100.00;98026.09;5065971;23;20598;-93
2023/09/17 05:23:27;;;;;;;10.90;9.20;;;;;;;19.54;100.00;98030.91;5065491;23;20591;-91
2023/09/17 05:25:36;;;;;;;8.90;8.00;;;;;;;19.60;100.00;98044.31;5065146;23;20575;-92
2023/09/17 05:27:39;;;;;;;9.40;8.43;;;;;;;19.69;100.00;98045.19;5064949;23;20583;-93
2023/09/17 05:29:44;;;;;;;9.93;8.93;;;;;;;19.72;99.42;98050.97;5090482;23;20585;-92
2023/09/17 05:31:48;;;;;;;9.80;8.77;;;;;;;19.72;100.00;98045.69;5090664;23;20581;-93
2023/09/17 05:33:53;;;;;;;10.33;9.20;;;;;;;19.72;100.00;98053.63;5066033;23;20587;-93
2023/09/17 05:35:57;;;;;;;10.30;9.30;;;;;;;19.76;99.66;98051.50;5065504;23;20602;-92
2023/09/17 05:38:04;;;;;;;10.37;9.27;;;;;;;19.81;100.00;98059.78;5064906;23;20618;-93
2023/09/17 05:40:09;;;;;;;11.13;8.77;;;;;;;19.83;99.17;98074.53;5089879;23;20622;-93
2023/09/17 05:42:12;;;;;;;9.70;8.50;;;;;;;19.85;100.00;98065.41;5088716;23;20571;-93
2023/09/17 05:44:16;;;;;;;10.10;9.10;;;;;;;19.92;99.93;98073.56;5065270;23;20598;-93
2023/09/17 05:46:19;;;;;;;9.67;8.70;;;;;;;20.06;100.00;98073.75;5065886;23;20975;-93
2023/09/17 05:48:22;;;;;;;11.50;8.50;;;;;;;20.22;99.79;98070.28;5065117;23;20626;-93
2023/09/17 05:50:27;;;;;;;9.57;8.67;;;;;;;20.32;99.11;98075.25;5067528;23;20575;-95
2023/09/17 05:52:33;;;;;;;11.33;8.93;;;;;;;20.44;98.82;98081.06;5066085;23;20579;-96
2023/09/17 05:54:38;;;;;;;11.03;8.70;;;;;;;20.46;98.38;98076.41;5067712;23;20577;-95
2023/09/17 05:56:46;;;;;;;9.47;8.30;;;;;;;20.48;98.25;98077.09;5090369;23;20570;-93
2023/09/17 05:58:52;;;;;;;9.90;8.93;;;;;;;20.56;97.60;98080.56;5112866;23;20582;-94
2023/09/17 06:00:56;;;;;;;11.20;8.77;;;;;;;20.70;97.86;98079.91;5089946;23;20566;-92
2023/09/17 06:03:00;;;;;;;9.90;8.90;;;;;;;20.84;98.05;98081.91;5089925;23;20629;-93
2023/09/17 06:05:05;;;;;;;10.13;9.13;;;;;;;20.92;97.49;98074.75;5064188;23;20608;-93
2023/09/17 06:07:08;;;;;;;11.37;8.50;;;;;;;21.03;96.17;98073.56;5067915;23;20587;-93
2023/09/17 06:09:11;;;;;;;9.87;8.93;;;;;;;21.11;95.53;98074.38;5065049;23;20702;-94
2023/09/17 06:11:17;;;;;;;10.73;9.67;;;;;;;21.21;94.31;98077.66;5065956;23;20591;-93
2023/09/17 06:13:21;;;;;;;9.70;8.67;;;;;;;21.29;94.16;98075.00;5066018;23;20684;-93
2023/09/17 06:15:25;;;;;;;10.03;9.03;;;;;;;21.40;95.35;98088.72;5064894;23;20600;-93
2023/09/17 06:17:28;;;;;;;11.80;9.07;;;;;;;21.49;93.91;98089.56;5090395;23;20627;-93
2023/09/17 06:19:33;;;;;;;11.87;7.93;;;;;;;21.63;94.34;98086.16;5089499;23;20662;-93
2023/09/17 06:21:36;;;;;;;9.50;8.60;;;;;;;21.80;93.80;98092.06;5064641;23;20588;-93
2023/09/17 06:23:39;;;;;;;8.80;8.00;;;;;;;21.77;93.02;98092.41;5066050;23;20677;-93
2023/09/17 06:25:43;;;;;;;9.87;8.97;;;;;;;21.78;92.92;98093.22;5090211;23;20572;-93
2023/09/17 06:27:48;;;;;;;9.63;8.60;;;;;;;21.87;92.55;98086.88;5089846;23;20632;-94
2023/09/17 06:29:51;;;;;;;9.10;8.20;;;;;;;21.98;91.67;98092.63;5062745;23;20647;-91
2023/09/17 06:31:58;;;;;;;9.17;8.27;;;;;;;22.23;93.97;98099.47;5089822;23;20634;-91
2023/09/17 06:34:02;;;;;;;9.27;8.37;;;;;;;22.40;92.74;98101.84;5063404;23;20661;-91
2023/09/17 06:36:06;;;;;;;8.90;8.00;;;;;;;22.54;91.06;98097.59;5064058;23;20941;-91
2023/09/17 06:38:11;;;;;;;8.97;8.07;;;;;;;22.66;89.94;98090.81;5065935;23;20673;-91
2023/09/17 06:40:15;;;;;;;9.00;8.17;;;;;;;22.76;89.91;98097.53;5089400;23;20617;-91
2023/09/17 06:42:19;;;;;;;9.90;7.97;;;;;;;22.75;89.34;98091.41;5064260;23;20592;-91
2023/09/17 06:44:23;;;;;;;11.57;7.97;;;;;;;22.91;89.31;98095.75;5089042;23;20592;-91
2023/09/17 06:46:27;;;;;;;8.83;7.87;;;;;;;23.10;88.68;98095.25;5066270;23;20606;-92
2023/09/17 06:48:30;;;;;;;8.40;7.60;;;;;;;23.23;88.92;98099.75;5089850;23;20596;-91
2023/09/17 06:50:33;;;;;;;12.33;8.00;;;;;;;23.13;90.22;98093.06;5090037;23;21309;-90
2023/09/17 06:52:38;;;;;;;9.17;8.27;;;;;;;22.88;89.05;98082.78;5063580;23;21623;-91
2023/09/17 06:54:41;;;;;;;7.90;7.00;;;;;;;22.69;88.93;98085.13;5088781;23;20583;-91
2023/09/17 06:56:43;;;;;;;8.83;8.03;;;;;;;22.68;90.22;98088.81;5064969;23;21121;-91
2023/09/17 06:58:47;;;;;;;8.43;7.63;;;;;;;22.69;91.40;98085.97;5065862;23;20582;-91
2023/09/17 07:00:53;;;;;;;8.93;8.03;;;;;;;22.84;91.01;98086.84;5087502;23;20711;-91
2023/09/17 07:02:56;;;;;;;8.97;8.07;;;;;;;23.12;92.47;98087.91;5064659;23;20931;-91
2023/09/17 07:05:03;;;;;;;8.37;7.57;;;;;;;23.30;90.90;98094.53;5064502;23;20665;-91
2023/09/17 07:07:06;;;;;;;8.50;7.60;;;;;;;23.59;90.02;98094.50;5090626;23;20581;-91
2023/09/17 07:09:10;;;;;;;9.50;8.40;;;;;;;23.86;90.19;98094.69;5089567;23;20577;-91
2023/09/17 07:11:13;;;;;;;9.63;8.73;;;;;;;24.10;89.96;98091.69;5088476;23;21000;-91
2023/09/17 07:13:16;;;;;;;8.70;7.90;;;;;;;24.31;89.43;98092.53;5089005;23;20644;-91
2023/09/17 07:15:20;;;;;;;8.83;7.93;;;;;;;24.58;89.06;98095.28;5064654;23;20587;-90
2023/09/17 07:17:25;;;;;;;8.40;7.60;;;;;;;24.77;87.07;98092.00;5088136;23;20593;-91
2023/09/17 07:19:33;;;;;;;8.03;7.23;;;;;;;24.95;87.13;98089.69;5065699;23;20569;-91
2023/09/17 07:21:37;;;;;;;8.80;8.00;;;;;;;25.06;85.88;98081.97;5092417;23;21118;-93
2023/09/17 07:23:40;;;;;;;8.13;7.37;;;;;;;24.98;84.65;98090.09;5091786;23;20581;-92
2023/09/17 07:25:45;;;;;;;8.90;8.00;;;;;;;24.89;85.09;98090.44;5093144;23;20574;-92
2023/09/17 07:27:50;;;;;;;9.87;8.20;;;;;;;24.75;85.12;98094.84;5092339;23;20581;-92
2023/09/17 07:29:54;;;;;;;11.03;7.80;;;;;;;24.74;87.08;98084.38;5066478;23;20975;-92
2023/09/17 07:31:57;;;;;;;8.30;7.50;;;;;;;24.90;86.00;98084.91;5067544;23;20586;-91
2023/09/17 07:34:04;;;;;;;8.93;8.03;;;;;;;25.13;84.80;98087.38;5066518;23;20582;-92
2023/09/17 07:36:06;;;;;;;7.90;7.20;;;;;;;25.24;84.42;98084.97;5066214;23;20982;-91
2023/09/17 07:38:10;;;;;;;8.33;7.53;;;;;;;25.31;85.07;98092.00;5066952;23;20588;-92
2023/09/17 07:40:14;;;;;;;8.23;7.53;;;;;;;25.44;84.46;98093.94;5067292;23;20974;-92
2023/09/17 07:42:17;;;;;;;7.80;7.00;;;;;;;25.59;82.78;98098.16;5066599;23;20911;-92
2023/09/17 07:44:20;;;;;;;7.90;7.20;;;;;;;25.73;82.97;98099.91;5066595;23;20898;-92
2023/09/17 07:46:24;;;;;;;7.60;6.80;;;;;;;25.81;82.71;98100.53;5066957;23;20585;-92
2023/09/17 07:48:29;;;;;;;7.47;6.77;;;;;;;25.92;81.69;98097.31;5093063;23;20667;-93
2023/09/17 07:50:34;;;;;;;7.90;7.00;;;;;;;25.97;80.72;98100.22;5092149;23;20898;-92
2023/09/17 07:52:37;;;;;;;7.87;7.17;;;;;;;26.03;82.62;98106.63;5089850;23;20578;-92
2023/09/17 07:54:42;;;;;;;8.57;7.63;;;;;;;26.24;83.46;98108.13;5065008;23;20581;-91
2023/09/17 07:56:45;;;;;;;7.53;6.83;;;;;;;26.43;81.55;98109.22;5092694;23;20940;-91
2023/09/17 07:58:48;;;;;;;7.43;6.73;;;;;;;26.54;80.66;98111.28;5067425;23;20585;-92
2023/09/17 08:00:52;;;;;;;6.83;6.23;;;;;;;26.58;79.90;98110.69;5090227;23;20612;-91
2023/09/17 08:02:55;;;;;;;7.40;6.60;;;;;;;26.57;80.35;98114.41;5064353;23;21195;-92
2023/09/17 08:04:59;;;;;;;8.30;7.03;;;;;;;26.80;81.69;98115.66;5088707;23;20665;-92
2023/09/17 08:07:04;;;;;;;8.33;7.53;;;;;;;27.01;82.59;98125.41;5064235;23;20587;-91
2023/09/17 08:09:07;;;;;;;7.37;6.73;;;;;;;27.01;81.31;98125.41;5066418;23;20596;-91
2023/09/17 08:11:11;;;;;;;7.47;6.77;;;;;;;26.86;77.59;98114.84;5089851;23;20582;-91
2023/09/17 08:13:14;;;;;;;8.40;6.87;;;;;;;26.76;78.60;98113.59;5089323;23;20628;-91
2023/09/17 08:15:18;;;;;;;6.90;6.10;;;;;;;26.73;79.32;98120.19;5064940;23;20638;-91
2023/09/17 08:17:22;;;;;;;6.83;6.10;;;;;;;27.00;80.48;98123.72;5066067;23;20580;-91
2023/09/17 08:19:25;;;;;;;6.00;5.50;;;;;;;27.26;80.57;98128.06;5064621;23;21008;-92
2023/09/17 08:21:29;;;;;;;6.27;5.67;;;;;;;27.37;78.92;98126.59;5088141;23;20785;-91
2023/09/17 08:23:40;;;;;;;6.57;5.80;;;;;;;27.50;75.78;98130.13;5086219;23;20570;-91
2023/09/17 08:26:04;;;;;;;7.20;6.50;;;;;;;27.56;78.12;98126.59;5088122;23;20625;-92
2023/09/17 08:28:26;;;;;;;6.37;5.60;;;;;;;27.60;75.66;98130.50;5068032;23;20573;-91
2023/09/17 08:30:49;;;;;;;6.23;5.63;;;;;;;27.39;75.76;98128.03;5087492;23;20640;-92
2023/09/17 08:33:13;;;;;;;5.53;5.00;;;;;;;27.22;75.51;98126.00;5090925;23;20583;-91
2023/09/17 08:35:36;;;;;;;6.33;5.53;;;;;;;27.12;77.13;98131.78;5091006;23;20593;-92
2023/09/17 08:37:40;;;;;;;6.97;5.17;;;;;;;27.00;76.55;98132.59;5092161;23;21114;-91
2023/09/17 08:39:45;;;;;;;5.50;5.00;;;;;;;26.95;74.73;98134.25;5091003;23;20572;-91
2023/09/17 08:41:49;;;;;;;6.10;5.50;;;;;;;26.88;76.82;98128.88;5090721;23;21013;-91
2023/09/17 08:43:53;;;;;;;6.90;5.30;;;;;;;26.84;77.50;98126.81;5089822;23;20653;-92
2023/09/17 08:45:57;;;;;;;5.70;5.20;;;;;;;26.77;77.39;98125.97;5065470;23;20671;-91
2023/09/17 08:48:00;;;;;;;6.50;5.70;;;;;;;26.75;78.12;98133.38;5090868;23;20667;-92
2023/09/17 08:50:05;;;;;;;6.00;5.50;;;;;;;26.80;78.83;98131.72;5090906;23;20682;-92
2023/09/17 08:52:09;;;;;;;6.23;5.63;;;;;;;26.92;78.46;98130.13;5090000;23;20955;-91
2023/09/17 08:54:16;;;;;;;5.70;5.20;;;;;;;26.97;77.87;98137.53;5090247;23;20571;-92
2023/09/17 08:56:21;;;;;;;6.60;5.77;;;;;;;26.96;75.14;98125.16;5088642;23;20600;-92
2023/09/17 08:58:28;;;;;;;7.37;5.77;;;;;;;27.14;76.54;98137.75;5089497;23;20979;-92
2023/09/17 09:00:33;;;;;;;5.90;5.10;;;;;;;27.51;75.28;98141.66;5066256;23;20580;-92
2023/09/17 09:02:47;;;;;;;6.97;6.27;;;;;;;27.85;75.58;98144.88;5088959;23;20576;-91
2023/09/17 09:04:51;;;;;;;6.20;5.60;;;;;;;28.04;72.71;98134.09;5089126;23;20943;-93
2023/09/17 09:06:55;;;;;;;5.67;5.07;;;;;;;28.14;72.27;98131.78;5089924;23;20963;-91
2023/09/17 09:08:59;;;;;;;5.90;5.30;;;;;;;28.30;71.83;98136.69;5066069;23;20581;-91
2023/09/17 09:11:02;;;;;;;6.93;6.10;;;;;;;28.39;71.02;98133.53;5065886;23;20578;-91
2023/09/17 09:13:08;;;;;;;7.50;5.50;;;;;;;28.44;70.66;98122.97;5066584;23;21344;-92
2023/09/17 09:15:10;;;;;;;6.00;5.40;;;;;;;28.52;70.96;98112.81;5090026;23;20659;-92
2023/09/17 09:17:14;;;;;;;8.23;5.30;;;;;;;28.59;70.06;98120.81;5091282;23;20671;-92
2023/09/17 09:19:17;;;;;;;5.83;5.33;;;;;;;28.56;69.91;98131.97;5065592;23;20572;-92
2023/09/17 09:21:21;;;;;;;5.60;5.10;;;;;;;28.59;68.96;98131.56;5065495;23;20606;-92
2023/09/17 09:23:25;;;;;;;5.60;5.03;;;;;;;28.65;68.85;98126.13;5066234;23;20608;-92
2023/09/17 09:25:28;;;;;;;5.00;4.50;;;;;;;28.73;68.60;98125.94;5089634;23;20571;-91
2023/09/17 09:27:32;;;;;;;4.93;4.43;;;;;;;28.83;69.86;98125.44;5065911;23;20597;-91
2023/09/17 09:29:37;;;;;;;4.77;4.27;;;;;;;28.89;68.90;98124.56;5089911;23;20603;-91
2023/09/17 09:31:42;;;;;;;6.83;4.93;;;;;;;28.94;68.49;98124.72;5064877;23;20639;-92
2023/09/17 09:33:44;;;;;;;5.70;4.70;;;;;;;28.97;66.95;98122.41;5088776;23;20580;-92
2023/09/17 09:35:47;;;;;;;5.80;4.60;;;;;;;28.99;70.73;98123.84;5065131;23;20589;-91
2023/09/17 09:37:53;;;;;;;4.17;3.77;;;;;;;29.05;68.94;98112.22;5065616;23;20582;-92
2023/09/17 09:39:58;;;;;;;5.33;4.53;;;;;;;29.10;70.17;98125.81;5066129;23;20588;-91
2023/09/17 09:42:02;;;;;;;5.60;4.63;;;;;;;29.05;67.38;98122.97;5091637;23;20649;-91
2023/09/17 09:44:08;;;;;;;5.60;4.90;;;;;;;28.99;68.56;98113.09;5089429;23;20689;-92